Time;durP1;ratioP1;P1;durP2;ratioP2;P2;SDS_P1;SDS_P2;PMS_P1;PMS_P2;Temp;Humidity;BMP_temperature;BMP_pressure;BME280_temperature;BME280_humidity;BME280_pressure;Samples;Min_cycle;Max_cycle;Signal;HPM_P1;HPM_P2
2022/11/18 00:00:15;;;;;;;1.90;1.70;;;19.80;46.60;;;;;;5114258;28;20047;-10
2022/11/18 00:02:41;;;;;;;2.10;1.90;;;19.80;46.70;;;;;;5114360;28;20369;-10
2022/11/18 00:05:06;;;;;;;1.80;1.65;;;19.80;46.70;;;;;;5113968;28;20047;-10
2022/11/18 00:07:32;;;;;;;1.77;1.67;;;19.80;46.70;;;;;;5113348;28;20059;-10
2022/11/18 00:09:58;;;;;;;2.20;1.60;;;19.80;46.70;;;;;;5113807;28;20482;-10
2022/11/18 00:15:08;;;;;;;1.60;1.50;;;19.80;46.70;;;;;;5113651;28;20511;-10
2022/11/18 00:17:33;;;;;;;1.90;1.80;;;19.80;46.70;;;;;;5112977;28;20060;-10
2022/11/18 00:19:59;;;;;;;1.80;1.70;;;19.80;46.70;;;;;;5113879;28;20138;-10
2022/11/18 00:22:25;;;;;;;1.73;1.50;;;19.80;46.70;;;;;;5113518;28;20048;-10
2022/11/18 00:24:50;;;;;;;1.60;1.50;;;19.80;46.70;;;;;;5114122;28;20058;-10
2022/11/18 00:27:16;;;;;;;1.70;1.60;;;19.80;46.70;;;;;;5113383;28;20051;-11
2022/11/18 00:29:41;;;;;;;1.63;1.52;;;19.80;46.70;;;;;;5113677;28;20055;-10
2022/11/18 00:32:09;;;;;;;1.48;1.33;;;19.80;46.70;;;;;;5113802;28;20055;-10
2022/11/18 00:34:36;;;;;;;2.10;1.90;;;19.80;46.70;;;;;;5113581;28;20111;-10
2022/11/18 00:37:03;;;;;;;1.80;1.70;;;19.80;46.70;;;;;;5113239;28;20113;-10
2022/11/18 00:39:30;;;;;;;1.88;1.77;;;19.80;46.70;;;;;;5113815;28;20055;-10
2022/11/18 00:44:41;;;;;;;1.70;1.60;;;19.80;46.70;;;;;;5113401;28;20051;-10
2022/11/18 00:47:08;;;;;;;1.60;1.50;;;19.80;46.70;;;;;;5113491;28;20047;-10
2022/11/18 00:49:35;;;;;;;1.58;1.48;;;19.80;46.70;;;;;;5113196;28;20105;-10
2022/11/18 00:52:02;;;;;;;1.85;1.70;;;19.80;46.70;;;;;;5113713;28;20054;-10
2022/11/18 00:54:30;;;;;;;1.80;1.70;;;19.80;46.70;;;;;;5113140;28;20411;-10
2022/11/18 00:56:56;;;;;;;1.77;1.67;;;19.80;46.70;;;;;;5112995;28;20090;-10
2022/11/18 00:59:22;;;;;;;1.90;1.70;;;19.80;46.70;;;;;;5113573;28;20077;-10
2022/11/18 01:01:47;;;;;;;1.58;1.48;;;19.80;46.70;;;;;;5113153;28;20095;-10
2022/11/18 01:04:13;;;;;;;1.63;1.52;;;19.80;46.70;;;;;;5112632;28;20512;-10
2022/11/18 01:06:39;;;;;;;2.20;1.60;;;19.80;46.70;;;;;;5112541;28;20063;-11
2022/11/18 01:09:05;;;;;;;1.90;1.80;;;19.80;46.80;;;;;;5112612;28;20058;-9
2022/11/18 01:14:15;;;;;;;1.52;1.42;;;19.80;46.70;;;;;;5113207;28;20445;-10
2022/11/18 01:16:41;;;;;;;1.73;1.63;;;19.80;46.70;;;;;;5112294;28;20065;-10
2022/11/18 01:19:07;;;;;;;1.83;1.70;;;19.80;47.30;;;;;;5112880;28;20047;-10
2022/11/18 01:21:32;;;;;;;2.08;1.85;;;19.80;46.70;;;;;;5112760;28;20106;-10
2022/11/18 01:23:58;;;;;;;2.10;1.83;;;19.80;46.70;;;;;;5112895;28;20143;-10
2022/11/18 01:26:24;;;;;;;1.52;1.42;;;19.80;46.80;;;;;;5112737;28;20438;-10
2022/11/18 01:28:53;;;;;;;1.75;1.60;;;19.80;46.70;;;;;;5112696;28;20522;-10
2022/11/18 01:31:19;;;;;;;1.73;1.63;;;19.80;46.70;;;;;;5112694;28;20062;-10
2022/11/18 01:33:45;;;;;;;1.65;1.55;;;19.80;46.70;;;;;;5112635;28;20051;-10
2022/11/18 01:36:16;;;;;;;2.60;2.20;;;19.80;46.70;;;;;;5112416;28;20407;-10
2022/11/18 01:38:42;;;;;;;1.67;1.58;;;19.80;46.70;;;;;;5112429;28;20552;-10
2022/11/18 01:41:08;;;;;;;1.70;1.60;;;19.80;46.70;;;;;;5113090;28;20056;-10
2022/11/18 01:43:49;;;;;;;1.50;1.40;;;19.70;46.70;;;;;;5116604;28;20405;-10
2022/11/18 01:46:15;;;;;;;2.75;1.65;;;19.80;46.70;;;;;;5116339;28;20075;-10
2022/11/18 01:48:41;;;;;;;1.60;1.50;;;19.70;46.70;;;;;;5116073;28;20436;-10
2022/11/18 01:51:12;;;;;;;1.70;1.60;;;19.80;46.70;;;;;;5115973;28;20051;-10
2022/11/18 01:53:41;;;;;;;0.82;0.82;;;19.80;46.70;;;;;;5115949;28;20044;-10
2022/11/18 01:56:13;;;;;;;2.00;1.80;;;19.80;46.70;;;;;;5115749;28;20132;-10
2022/11/18 01:58:50;;;;;;;1.95;1.75;;;19.80;46.70;;;;;;5112065;28;20050;-10
2022/11/18 02:01:17;;;;;;;1.92;1.83;;;19.80;46.70;;;;;;5115817;28;20052;-10
2022/11/18 02:03:45;;;;;;;1.52;1.42;;;19.80;46.70;;;;;;5116324;28;20090;-10
2022/11/18 02:06:12;;;;;;;2.00;1.67;;;19.80;46.70;;;;;;5115717;28;20111;-10
2022/11/18 02:08:39;;;;;;;1.70;1.60;;;19.80;46.70;;;;;;5115648;28;20048;-10
2022/11/18 02:11:08;;;;;;;1.48;1.38;;;19.70;46.70;;;;;;5115768;28;20062;-10
2022/11/18 02:13:33;;;;;;;1.70;1.60;;;19.80;46.70;;;;;;5116102;28;20484;-10
2022/11/18 02:16:09;;;;;;;1.70;1.60;;;19.80;46.70;;;;;;5116034;28;20051;-10
2022/11/18 02:18:59;;;;;;;1.70;1.60;;;19.70;46.60;;;;;;5115472;28;21471;-10
2022/11/18 02:21:34;;;;;;;1.80;1.70;;;19.80;46.70;;;;;;5115249;28;20054;-10
2022/11/18 02:24:20;;;;;;;1.60;1.50;;;19.80;46.70;;;;;;5115501;28;20506;-10
2022/11/18 02:27:10;;;;;;;1.48;1.38;;;19.80;46.60;;;;;;5115140;28;20059;-10
2022/11/18 02:30:07;;;;;;;1.60;1.50;;;19.80;46.60;;;;;;5115333;28;20073;-10
2022/11/18 02:32:40;;;;;;;1.60;1.50;;;19.80;46.60;;;;;;5115378;28;20444;-10
2022/11/18 02:35:15;;;;;;;1.67;1.58;;;19.80;46.60;;;;;;5112944;28;20109;-10
2022/11/18 02:37:48;;;;;;;1.30;1.20;;;19.80;46.50;;;;;;5115449;28;20066;-10
2022/11/18 02:40:36;;;;;;;1.55;1.45;;;19.80;46.50;;;;;;5115170;28;20047;-10
2022/11/18 02:43:07;;;;;;;1.77;1.67;;;19.80;46.40;;;;;;5115678;28;20051;-10
2022/11/18 02:45:34;;;;;;;1.63;1.53;;;19.90;46.50;;;;;;5115534;28;20060;-10
2022/11/18 02:48:06;;;;;;;1.70;1.60;;;19.90;46.50;;;;;;5115172;28;20372;-10
2022/11/18 02:50:35;;;;;;;1.50;1.40;;;19.90;46.50;;;;;;5096786;28;20403;-10
2022/11/18 02:53:05;;;;;;;1.63;1.52;;;19.90;46.50;;;;;;5115318;28;20051;-10
2022/11/18 02:55:33;;;;;;;1.75;1.65;;;19.90;47.00;;;;;;5115267;28;20498;-10
2022/11/18 02:58:00;;;;;;;1.70;1.60;;;19.90;46.50;;;;;;5114867;28;20060;-10
2022/11/18 03:00:26;;;;;;;1.58;1.48;;;19.90;46.50;;;;;;5114650;28;20048;-10
2022/11/18 03:02:51;;;;;;;1.60;1.50;;;19.90;46.50;;;;;;5115442;28;20055;-10
2022/11/18 03:05:34;;;;;;;1.70;1.60;;;19.90;46.40;;;;;;5115421;28;20387;-10
2022/11/18 03:08:12;;;;;;;1.50;1.40;;;20.00;46.50;;;;;;5115052;28;20060;-10
2022/11/18 03:11:10;;;;;;;1.50;1.20;;;20.00;46.40;;;;;;5114732;28;20055;-10
2022/11/18 03:14:07;;;;;;;1.77;1.67;;;20.00;46.40;;;;;;5107954;28;20051;-10
2022/11/18 03:16:42;;;;;;;1.73;1.63;;;20.00;46.40;;;;;;5114585;28;20495;-10
2022/11/18 03:19:36;;;;;;;1.80;1.55;;;19.90;46.40;;;;;;5114404;28;20044;-10
2022/11/18 03:22:09;;;;;;;1.70;1.60;;;20.00;46.40;;;;;;5114529;28;20051;-10
2022/11/18 03:24:41;;;;;;;1.50;1.40;;;19.90;46.40;;;;;;5114846;28;20074;-10
2022/11/18 03:27:20;;;;;;;2.10;1.88;;;19.90;46.40;;;;;;5114877;28;20059;-10
2022/11/18 03:29:57;;;;;;;1.27;1.17;;;19.90;46.40;;;;;;5114608;28;20112;-10
2022/11/18 03:32:27;;;;;;;1.50;1.40;;;19.90;46.50;;;;;;5114716;28;20074;-10
2022/11/18 03:35:00;;;;;;;1.85;1.70;;;19.90;46.50;;;;;;5114966;28;20047;-10
2022/11/18 03:37:30;;;;;;;1.45;1.35;;;19.90;46.40;;;;;;5114477;28;20079;-10
2022/11/18 03:40:02;;;;;;;1.67;1.58;;;19.90;46.50;;;;;;5111013;28;20055;-10
2022/11/18 03:42:36;;;;;;;1.73;1.50;;;19.90;46.50;;;;;;5096400;28;20051;-10
2022/11/18 03:45:11;;;;;;;1.70;1.60;;;19.90;46.40;;;;;;5096390;28;20395;-10
2022/11/18 03:47:42;;;;;;;1.80;1.70;;;19.90;46.40;;;;;;5114496;28;20251;-10
2022/11/18 03:50:15;;;;;;;1.70;1.60;;;19.90;46.40;;;;;;5114427;28;20170;-10
2022/11/18 03:52:42;;;;;;;1.50;1.40;;;19.90;46.40;;;;;;5114618;28;20048;-10
2022/11/18 03:55:13;;;;;;;1.80;1.70;;;19.90;46.30;;;;;;5114322;28;20058;-10
2022/11/18 03:57:45;;;;;;;1.80;1.70;;;19.90;46.40;;;;;;5114016;28;20097;-10
2022/11/18 04:00:14;;;;;;;1.92;1.80;;;19.90;46.60;;;;;;5113914;28;20060;-10
2022/11/18 04:02:39;;;;;;;1.77;1.67;;;19.90;46.40;;;;;;5113895;28;20131;-10
2022/11/18 04:05:11;;;;;;;1.48;1.38;;;19.90;46.40;;;;;;5113083;28;20197;-10
2022/11/18 04:07:48;;;;;;;;;;;19.90;46.30;;;;;;5095264;28;20058;-10
2022/11/18 04:10:16;;;;;;;1.60;1.50;;;19.90;46.30;;;;;;5114136;28;20017;-10
2022/11/18 04:12:56;;;;;;;1.58;1.48;;;20.00;46.30;;;;;;5113798;28;20043;-10
2022/11/18 04:15:24;;;;;;;1.90;1.65;;;19.90;46.30;;;;;;5113634;28;20054;-10
2022/11/18 04:17:50;;;;;;;1.52;1.42;;;20.00;46.30;;;;;;5113229;28;20051;-10
2022/11/18 04:20:19;;;;;;;1.73;1.63;;;20.00;46.30;;;;;;5113540;28;20077;-10
2022/11/18 04:22:45;;;;;;;2.40;2.20;;;20.00;46.30;;;;;;5113499;28;20079;-10
2022/11/18 04:25:11;;;;;;;1.80;1.70;;;20.00;46.90;;;;;;5113836;28;20395;-10
2022/11/18 04:27:37;;;;;;;1.70;1.60;;;19.90;46.30;;;;;;5113484;28;20461;-10
2022/11/18 04:30:05;;;;;;;1.60;1.50;;;20.00;46.30;;;;;;5113531;28;20075;-10
2022/11/18 04:32:31;;;;;;;1.88;1.75;;;20.00;46.30;;;;;;5113410;28;20514;-10
2022/11/18 04:34:56;;;;;;;1.75;1.65;;;19.90;46.80;;;;;;5113330;28;20043;-10
2022/11/18 04:37:22;;;;;;;1.67;1.58;;;19.90;46.30;;;;;;5113537;28;20086;-10
2022/11/18 04:39:47;;;;;;;1.52;1.42;;;19.90;46.30;;;;;;5113412;28;20059;-10
2022/11/18 04:42:13;;;;;;;2.80;1.55;;;19.90;46.30;;;;;;5113756;28;20052;-10
2022/11/18 04:44:40;;;;;;;1.50;1.40;;;19.90;46.30;;;;;;5113384;28;20048;-10
2022/11/18 04:47:07;;;;;;;1.80;1.70;;;19.90;46.30;;;;;;5113034;28;20139;-10
2022/11/18 04:49:34;;;;;;;1.83;1.73;;;19.90;46.30;;;;;;5113224;28;20479;-10
2022/11/18 04:52:01;;;;;;;1.80;1.65;;;19.90;46.30;;;;;;5113132;28;20051;-10
2022/11/18 04:54:27;;;;;;;1.73;1.58;;;19.90;46.80;;;;;;5113429;28;20047;-10
2022/11/18 04:56:54;;;;;;;1.70;1.60;;;19.90;46.30;;;;;;5112768;28;20051;-10
2022/11/18 04:59:26;;;;;;;1.60;1.50;;;19.90;46.80;;;;;;5113092;28;20468;-10
2022/11/18 05:01:52;;;;;;;1.67;1.48;;;19.90;46.30;;;;;;5112873;28;20051;-10
2022/11/18 05:04:21;;;;;;;1.48;1.38;;;19.90;46.30;;;;;;5113114;28;20055;-10
2022/11/18 05:06:47;;;;;;;1.88;1.77;;;19.90;46.40;;;;;;5113315;28;20051;-10
2022/11/18 05:09:14;;;;;;;1.80;1.70;;;19.90;46.30;;;;;;5113048;28;20135;-10
2022/11/18 05:14:26;;;;;;;1.85;1.75;;;19.90;46.40;;;;;;5112995;28;20465;-10
2022/11/18 05:16:53;;;;;;;1.67;1.58;;;19.90;46.50;;;;;;5115010;28;20063;-10
2022/11/18 05:19:19;;;;;;;2.00;1.85;;;19.90;46.50;;;;;;5116231;28;20134;-10
2022/11/18 05:21:44;;;;;;;1.52;1.42;;;19.90;46.40;;;;;;5116149;28;20094;-10
2022/11/18 05:24:10;;;;;;;1.48;1.38;;;19.90;46.50;;;;;;5116667;28;20048;-10
2022/11/18 05:26:36;;;;;;;2.13;1.70;;;19.80;46.40;;;;;;5116062;28;20050;-10
2022/11/18 05:29:02;;;;;;;1.60;1.50;;;19.90;46.50;;;;;;5116342;28;20415;-10
2022/11/18 05:31:28;;;;;;;1.65;1.50;;;19.90;46.50;;;;;;5116869;28;20055;-10
2022/11/18 05:33:53;;;;;;;1.70;1.60;;;19.90;46.40;;;;;;5116391;28;20051;-10
2022/11/18 05:36:20;;;;;;;1.77;1.67;;;19.90;46.40;;;;;;5116154;28;20048;-10
2022/11/18 05:38:46;;;;;;;1.60;1.50;;;19.90;46.40;;;;;;5116160;28;20051;-10
2022/11/18 05:43:09;;;;;;;2.00;1.80;;;19.90;47.00;;;;;;5116223;28;20060;-10
2022/11/18 05:44:01;;;;;;;2.25;1.75;;;19.90;46.40;;;;;;5116703;28;20093;-10
2022/11/18 05:46:27;;;;;;;1.20;1.10;;;19.90;46.40;;;;;;5116119;28;20142;-10
2022/11/18 05:48:53;;;;;;;1.65;1.55;;;19.90;46.40;;;;;;5112216;28;20052;-10
2022/11/18 05:51:19;;;;;;;1.92;1.73;;;19.90;46.40;;;;;;5115915;28;20067;-10
2022/11/18 05:53:47;;;;;;;1.52;1.42;;;19.90;46.30;;;;;;5115899;28;20059;-10
2022/11/18 05:56:27;;;;;;;1.73;1.63;;;19.90;46.30;;;;;;5116242;28;20411;-10
2022/11/18 05:58:52;;;;;;;1.65;1.55;;;19.90;46.40;;;;;;5115846;28;20070;-10
2022/11/18 06:01:44;;;;;;;1.70;1.60;;;19.90;46.30;;;;;;5115768;28;20067;-10
2022/11/18 06:04:24;;;;;;;1.50;1.40;;;19.90;46.30;;;;;;5076071;28;20058;-10
2022/11/18 06:06:57;;;;;;;1.50;1.40;;;19.90;46.30;;;;;;5115736;28;20158;-10
2022/11/18 06:09:27;;;;;;;1.60;1.50;;;19.90;46.30;;;;;;5115857;28;20199;-10
2022/11/18 06:11:57;;;;;;;1.52;1.42;;;19.90;46.30;;;;;;5115924;28;20051;-10
2022/11/18 06:14:33;;;;;;;1.73;1.50;;;19.90;46.30;;;;;;5115419;28;20567;-10
2022/11/18 06:17:03;;;;;;;1.50;1.40;;;19.90;46.30;;;;;;5115438;28;20061;-10
2022/11/18 06:19:32;;;;;;;1.60;1.50;;;19.90;46.30;;;;;;5115441;28;20055;-10
2022/11/18 06:21:59;;;;;;;1.50;1.40;;;19.90;46.30;;;;;;5115802;28;20048;-10
2022/11/18 06:24:25;;;;;;;1.77;1.67;;;19.90;46.30;;;;;;5097450;28;20062;-10
2022/11/18 06:26:51;;;;;;;1.52;1.42;;;19.90;46.30;;;;;;5114855;28;20407;-10
2022/11/18 06:29:19;;;;;;;1.63;1.52;;;19.90;46.30;;;;;;5114648;28;20100;-10
2022/11/18 06:31:44;;;;;;;1.70;1.60;;;19.90;46.30;;;;;;5115242;28;20082;-10
2022/11/18 06:34:10;;;;;;;2.25;1.92;;;19.90;46.90;;;;;;5115707;28;20087;-10
2022/11/18 06:36:36;;;;;;;1.50;1.40;;;19.90;46.40;;;;;;5114989;28;20054;-10
2022/11/18 06:39:04;;;;;;;1.58;1.48;;;19.90;46.30;;;;;;5115191;28;20063;-10
2022/11/18 06:41:30;;;;;;;1.63;1.52;;;19.90;46.40;;;;;;5115150;28;20098;-10
2022/11/18 06:43:55;;;;;;;1.50;1.40;;;19.90;46.80;;;;;;5115099;28;20064;-10
2022/11/18 06:49:06;;;;;;;1.63;1.50;;;19.90;46.10;;;;;;5115207;28;20048;-10
2022/11/18 06:51:31;;;;;;;1.80;1.50;;;19.90;46.20;;;;;;5115563;28;20126;-10
2022/11/18 06:53:57;;;;;;;2.35;1.80;;;19.90;46.20;;;;;;5115318;28;20061;-10
2022/11/18 06:56:23;;;;;;;1.80;1.67;;;19.80;46.10;;;;;;5114929;28;20142;-10
2022/11/18 06:58:53;;;;;;;2.05;1.85;;;19.90;46.20;;;;;;5115216;28;20083;-10
2022/11/18 07:01:21;;;;;;;1.27;1.17;;;19.90;46.20;;;;;;5115305;28;20059;-10
2022/11/18 07:03:47;;;;;;;3.45;1.50;;;19.90;46.20;;;;;;5115103;28;20050;-10
2022/11/18 07:06:16;;;;;;;1.90;1.70;;;19.90;46.20;;;;;;5095475;28;20056;-10
2022/11/18 07:08:42;;;;;;;1.52;1.40;;;19.90;46.70;;;;;;5115124;28;20552;-10
2022/11/18 07:11:11;;;;;;;1.58;1.48;;;19.80;46.20;;;;;;5115017;28;20047;-10
2022/11/18 07:13:37;;;;;;;1.70;1.60;;;19.80;46.20;;;;;;5114733;28;20050;-10
2022/11/18 07:16:13;;;;;;;2.58;1.45;;;19.90;46.20;;;;;;5114618;28;20134;-10
2022/11/18 07:18:41;;;;;;;2.47;1.67;;;19.90;46.20;;;;;;5114471;28;20056;-10
2022/11/18 07:21:09;;;;;;;2.65;1.70;;;19.80;46.20;;;;;;5114558;28;20474;-10
2022/11/18 07:23:34;;;;;;;2.00;1.77;;;19.90;46.20;;;;;;5114256;28;20080;-10
2022/11/18 07:26:01;;;;;;;2.20;1.90;;;19.90;46.20;;;;;;5114985;28;20467;-10
2022/11/18 07:28:27;;;;;;;2.53;1.60;;;19.90;46.20;;;;;;5114310;28;20066;-10
2022/11/18 07:31:03;;;;;;;1.67;1.58;;;19.80;46.10;;;;;;5095524;28;20048;-10
2022/11/18 07:33:30;;;;;;;1.77;1.67;;;19.90;46.10;;;;;;5114439;28;20059;-10
2022/11/18 07:36:03;;;;;;;1.73;1.63;;;19.90;46.10;;;;;;5114351;28;20109;-10
2022/11/18 07:38:29;;;;;;;1.83;1.55;;;19.90;46.10;;;;;;5113921;28;20052;-10
2022/11/18 07:41:05;;;;;;;1.75;1.65;;;19.90;46.10;;;;;;5113346;28;20056;-10
2022/11/18 07:43:33;;;;;;;1.83;1.73;;;19.90;46.10;;;;;;5114621;28;20441;-17
2022/11/18 07:46:15;;;;;;;2.10;1.90;;;19.90;46.10;;;;;;5114191;28;20487;-10
2022/11/18 07:48:42;;;;;;;2.00;1.73;;;19.80;46.10;;;;;;5114235;28;20048;-10
2022/11/18 07:51:08;;;;;;;1.75;1.63;;;19.80;46.10;;;;;;5114648;28;20051;-10
2022/11/18 07:53:35;;;;;;;3.05;2.08;;;19.90;46.10;;;;;;5114034;28;20052;-10
2022/11/18 07:56:01;;;;;;;2.17;1.98;;;19.80;46.00;;;;;;5114296;28;20055;-10
2022/11/18 07:58:27;;;;;;;1.90;1.60;;;19.90;46.10;;;;;;5113742;28;20622;-10
2022/11/18 08:00:52;;;;;;;1.70;1.60;;;19.90;46.10;;;;;;5094650;28;20065;-10
2022/11/18 08:03:18;;;;;;;1.70;1.60;;;19.90;46.00;;;;;;5113985;28;20415;-10
2022/11/18 08:05:44;;;;;;;1.90;1.80;;;19.90;46.00;;;;;;5113873;28;20103;-10
2022/11/18 08:08:12;;;;;;;2.00;1.75;;;19.90;45.90;;;;;;5113616;28;20393;-10
2022/11/18 08:10:38;;;;;;;2.00;1.90;;;19.90;45.90;;;;;;5114315;28;20130;-10
2022/11/18 08:13:03;;;;;;;2.20;1.85;;;19.90;45.90;;;;;;5114085;28;20139;-10
2022/11/18 08:15:29;;;;;;;2.15;1.95;;;19.90;45.80;;;;;;5114185;28;20059;-10
2022/11/18 08:17:55;;;;;;;1.70;1.60;;;19.90;45.90;;;;;;5113644;28;20057;-10
2022/11/18 08:20:20;;;;;;;1.88;1.77;;;19.90;45.80;;;;;;5113922;28;20051;-10
2022/11/18 08:22:46;;;;;;;1.70;1.60;;;19.90;45.90;;;;;;5113582;28;20047;-10
2022/11/18 08:25:11;;;;;;;1.90;1.80;;;19.90;45.90;;;;;;5113771;28;20051;-10
2022/11/18 08:27:37;;;;;;;2.00;1.80;;;19.90;45.90;;;;;;5113828;28;20093;-9
2022/11/18 08:30:03;;;;;;;2.05;1.88;;;19.80;45.80;;;;;;5113556;28;20118;-10
2022/11/18 08:32:29;;;;;;;1.65;1.52;;;19.90;45.90;;;;;;5113289;28;20062;-10
2022/11/18 08:34:55;;;;;;;2.22;1.63;;;19.90;45.90;;;;;;5113213;28;20055;-10
2022/11/18 08:37:20;;;;;;;1.73;1.63;;;19.90;45.80;;;;;;5113261;28;20102;-10
2022/11/18 08:39:46;;;;;;;2.22;1.70;;;19.90;45.80;;;;;;5113586;28;20399;-10
2022/11/18 08:42:11;;;;;;;1.80;1.70;;;19.90;45.80;;;;;;5113200;28;20100;-10
2022/11/18 08:44:38;;;;;;;1.67;1.58;;;19.90;45.80;;;;;;5113292;28;20048;-10
2022/11/18 08:47:05;;;;;;;2.13;1.92;;;19.90;45.80;;;;;;5113060;28;20147;-10
2022/11/18 08:49:32;;;;;;;1.80;1.60;;;19.90;45.70;;;;;;5112952;28;20065;-10
2022/11/18 08:51:57;;;;;;;2.80;1.67;;;19.90;45.80;;;;;;5112682;28;20617;-10
2022/11/18 08:54:23;;;;;;;1.83;1.73;;;19.90;45.80;;;;;;5113192;28;20134;-10
2022/11/18 08:56:49;;;;;;;2.03;1.83;;;19.90;45.80;;;;;;5112680;28;20052;-10
2022/11/18 08:59:15;;;;;;;2.58;2.20;;;19.90;45.80;;;;;;5112997;28;20055;-10
2022/11/18 09:01:42;;;;;;;2.05;1.70;;;19.90;45.70;;;;;;5095238;28;20076;-10
2022/11/18 09:04:08;;;;;;;2.20;1.92;;;19.90;45.70;;;;;;5112994;28;20048;-10
2022/11/18 09:06:33;;;;;;;2.00;1.80;;;19.90;45.70;;;;;;5112973;28;20143;-10
2022/11/18 09:08:59;;;;;;;2.10;1.90;;;19.90;45.70;;;;;;5112928;28;20051;-9
2022/11/18 09:11:26;;;;;;;1.95;1.75;;;19.90;45.70;;;;;;5112793;28;20070;-10
2022/11/18 09:13:57;;;;;;;2.00;1.80;;;19.90;45.70;;;;;;5112866;28;20047;-10
2022/11/18 09:16:23;;;;;;;2.05;1.70;;;19.90;45.60;;;;;;5113050;28;20051;-10
2022/11/18 09:18:50;;;;;;;1.70;1.60;;;19.90;45.70;;;;;;5112741;28;20048;-10
2022/11/18 09:21:17;;;;;;;1.80;1.70;;;19.90;45.70;;;;;;5112788;28;20052;-10
2022/11/18 09:23:44;;;;;;;2.47;1.73;;;19.90;45.70;;;;;;5113173;28;20062;-9
2022/11/18 09:26:16;;;;;;;2.28;2.03;;;19.90;45.70;;;;;;5112699;28;20044;-10
2022/11/18 09:28:42;;;;;;;1.83;1.73;;;19.90;45.70;;;;;;5113003;28;20119;-10
2022/11/18 09:31:11;;;;;;;1.70;1.60;;;19.90;45.70;;;;;;5112636;28;20043;-10
2022/11/18 09:33:37;;;;;;;1.92;1.80;;;20.00;45.70;;;;;;5112475;28;20064;-10
2022/11/18 09:36:22;;;;;;;1.67;1.58;;;20.00;46.30;;;;;;5112550;28;20415;-10
2022/11/18 09:38:48;;;;;;;2.22;2.03;;;19.90;45.70;;;;;;5112413;28;20067;-10
2022/11/18 09:41:51;;;;;;;1.63;1.52;;;19.90;45.70;;;;;;5112819;28;20050;-10
2022/11/18 09:45:01;;;;;;;1.60;1.50;;;19.90;45.70;;;;;;5112188;28;20205;-10
2022/11/18 09:47:32;;;;;;;1.77;1.50;;;19.90;45.70;;;;;;5112629;28;20555;-10
2022/11/18 09:50:23;;;;;;;2.38;1.65;;;19.90;46.20;;;;;;5112940;28;20055;-10
2022/11/18 09:53:04;;;;;;;2.03;1.88;;;20.00;45.70;;;;;;5098670;28;20104;-10
2022/11/18 09:55:32;;;;;;;1.70;1.60;;;20.00;45.60;;;;;;5112673;28;20480;-10
2022/11/18 09:57:58;;;;;;;2.15;1.80;;;20.00;45.60;;;;;;5112205;28;20054;-10
2022/11/18 10:00:31;;;;;;;3.40;2.00;;;20.00;45.50;;;;;;5112226;28;20130;-10
2022/11/18 10:03:05;;;;;;;2.22;1.77;;;20.00;46.00;;;;;;5113821;28;20055;-10
2022/11/18 10:06:01;;;;;;;1.80;1.70;;;20.00;45.40;;;;;;5116041;28;20051;-10
2022/11/18 10:08:36;;;;;;;2.25;1.90;;;20.00;45.50;;;;;;5095876;28;20055;-10
2022/11/18 10:11:18;;;;;;;2.47;1.70;;;20.00;45.50;;;;;;5115865;28;20067;-10
2022/11/18 10:14:10;;;;;;;1.92;1.80;;;20.00;46.00;;;;;;5115666;28;20048;-10
2022/11/18 10:17:27;;;;;;;2.20;2.00;;;20.00;45.50;;;;;;5115403;28;20147;-10
2022/11/18 10:20:00;;;;;;;3.40;2.22;;;20.00;45.50;;;;;;5013060;28;20057;-9
2022/11/18 10:22:54;;;;;;;1.75;1.60;;;20.00;45.40;;;;;;5013227;28;20049;-10
2022/11/18 10:25:21;;;;;;;1.98;1.83;;;20.00;45.40;;;;;;5060960;28;20147;-10
2022/11/18 10:27:49;;;;;;;2.08;1.90;;;20.00;45.40;;;;;;5115310;28;20130;-11
2022/11/18 10:30:23;;;;;;;2.08;1.85;;;20.00;45.40;;;;;;5115717;28;20079;-9
2022/11/18 10:33:00;;;;;;;2.85;2.10;;;20.00;45.40;;;;;;5115566;28;20057;-10
2022/11/18 10:35:35;;;;;;;1.75;1.65;;;20.00;45.40;;;;;;5115250;28;20044;-10
2022/11/18 10:38:12;;;;;;;1.85;1.70;;;20.00;45.40;;;;;;5114964;28;20074;-10
2022/11/18 10:40:57;;;;;;;2.08;1.90;;;20.00;45.40;;;;;;5115217;28;20062;-10
2022/11/18 10:43:47;;;;;;;1.77;1.67;;;20.00;45.40;;;;;;5112262;28;20066;-10
2022/11/18 10:46:22;;;;;;;1.90;1.80;;;20.00;45.40;;;;;;5115703;28;20048;-10
2022/11/18 10:49:08;;;;;;;3.55;2.03;;;20.00;45.30;;;;;;5115213;28;20054;-10
2022/11/18 10:51:36;;;;;;;2.03;1.83;;;20.10;45.40;;;;;;5114842;28;20100;-10
2022/11/18 10:54:17;;;;;;;1.60;1.50;;;20.10;45.40;;;;;;5115257;28;20047;-10
2022/11/18 10:56:52;;;;;;;1.75;1.63;;;20.10;45.40;;;;;;5114999;28;20089;-10
2022/11/18 10:59:32;;;;;;;2.20;1.50;;;20.10;45.30;;;;;;5115090;28;20055;-10
2022/11/18 11:02:23;;;;;;;1.95;1.70;;;20.10;45.30;;;;;;5114787;28;20047;-10
2022/11/18 11:04:50;;;;;;;1.75;1.65;;;20.10;45.30;;;;;;5101001;28;20044;-10
2022/11/18 11:07:23;;;;;;;2.25;1.73;;;20.10;45.80;;;;;;5114557;28;20059;-11
2022/11/18 11:10:05;;;;;;;3.10;1.90;;;20.10;45.80;;;;;;5114845;28;20138;-10
2022/11/18 11:12:37;;;;;;;2.30;1.90;;;20.10;45.30;;;;;;5114478;28;20068;-10
2022/11/18 11:15:07;;;;;;;1.77;1.67;;;20.10;45.30;;;;;;5114153;28;20060;-10
2022/11/18 11:17:39;;;;;;;2.20;2.00;;;20.10;45.30;;;;;;5114094;28;20051;-10
2022/11/18 11:20:17;;;;;;;1.65;1.55;;;20.10;45.30;;;;;;5114172;28;20134;-10
2022/11/18 11:22:44;;;;;;;1.80;1.70;;;20.10;45.30;;;;;;5114345;28;20509;-11
2022/11/18 11:25:16;;;;;;;1.85;1.75;;;20.10;45.30;;;;;;5114057;28;20514;-11
2022/11/18 11:27:51;;;;;;;1.73;1.60;;;20.00;45.20;;;;;;5113993;28;20159;-11
2022/11/18 11:30:22;;;;;;;1.50;1.40;;;20.10;45.90;;;;;;5114544;28;20113;-11
2022/11/18 11:32:47;;;;;;;;;;;20.10;45.30;;;;;;5114633;28;20050;-11
2022/11/18 11:35:33;;;;;;;1.65;1.55;;;20.00;45.20;;;;;;5113837;28;19915;-11
2022/11/18 11:38:06;;;;;;;1.60;1.50;;;20.00;45.30;;;;;;5113621;28;20100;-11
2022/11/18 11:40:38;;;;;;;1.65;1.55;;;20.10;45.40;;;;;;5114288;28;20427;-11
2022/11/18 11:43:22;;;;;;;2.47;1.60;;;20.00;45.20;;;;;;5113464;28;20058;-11
2022/11/18 11:46:13;;;;;;;2.17;1.88;;;20.10;45.20;;;;;;5114079;28;20051;-11
2022/11/18 11:48:50;;;;;;;3.60;2.05;;;20.10;45.20;;;;;;5113792;28;20055;-11
2022/11/18 11:51:24;;;;;;;2.80;1.83;;;20.00;45.10;;;;;;5113910;28;20052;-11
2022/11/18 11:53:55;;;;;;;1.77;1.55;;;20.10;45.20;;;;;;5113718;28;20079;-11
2022/11/18 11:56:52;;;;;;;2.25;1.70;;;20.10;45.10;;;;;;5113442;28;20096;-11
2022/11/18 11:59:45;;;;;;;2.00;1.80;;;20.10;45.10;;;;;;5110226;28;20047;-11
2022/11/18 12:02:46;;;;;;;1.60;1.50;;;20.00;45.10;;;;;;5114134;28;20568;-11
2022/11/18 12:05:23;;;;;;;2.05;1.85;;;20.00;45.10;;;;;;5113916;28;20056;-11
2022/11/18 12:07:57;;;;;;;2.65;1.75;;;20.00;45.10;;;;;;5113549;28;20108;-11
2022/11/18 12:10:41;;;;;;;2.00;1.80;;;20.00;45.20;;;;;;5113613;28;20104;-11
2022/11/18 12:13:31;;;;;;;1.98;1.80;;;20.00;45.10;;;;;;5113162;28;20059;-11
2022/11/18 12:16:29;;;;;;;2.83;1.95;;;20.00;45.10;;;;;;5113162;28;20139;-11
2022/11/18 12:19:02;;;;;;;2.00;1.83;;;20.00;45.10;;;;;;5056957;28;20039;-11
2022/11/18 12:21:48;;;;;;;1.90;1.70;;;20.00;45.20;;;;;;5113339;28;20475;-11
2022/11/18 12:24:29;;;;;;;1.88;1.67;;;20.00;45.20;;;;;;5094306;28;20055;-11
2022/11/18 12:26:58;;;;;;;2.30;1.70;;;20.00;45.20;;;;;;5112420;28;20035;-11
2022/11/18 12:29:31;;;;;;;2.15;1.95;;;20.00;45.70;;;;;;5113573;28;20043;-11
2022/11/18 12:31:58;;;;;;;2.00;1.80;;;20.00;45.20;;;;;;5113185;28;20078;-11
2022/11/18 12:34:40;;;;;;;2.28;2.08;;;20.00;45.20;;;;;;5112826;28;20059;-11
2022/11/18 12:37:31;;;;;;;2.08;1.90;;;20.00;45.20;;;;;;5113086;28;20039;-11
2022/11/18 12:39:59;;;;;;;1.83;1.63;;;20.00;45.20;;;;;;5110891;28;20066;-11
2022/11/18 12:45:42;;;;;;;2.50;1.70;;;20.00;45.20;;;;;;5112824;28;20055;-11
2022/11/18 12:48:23;;;;;;;1.60;1.50;;;20.00;45.30;;;;;;5112825;28;20050;-12
2022/11/18 12:50:52;;;;;;;2.10;1.60;;;20.00;45.30;;;;;;5113471;28;20383;-12
2022/11/18 12:53:33;;;;;;;1.98;1.77;;;20.00;45.20;;;;;;5112867;28;20099;-12
2022/11/18 12:55:58;;;;;;;1.52;1.42;;;20.00;45.20;;;;;;5112800;28;20110;-12
2022/11/18 12:58:25;;;;;;;1.75;1.65;;;20.00;45.20;;;;;;5112524;28;20491;-12
2022/11/18 13:01:07;;;;;;;2.22;1.90;;;20.00;45.30;;;;;;5094856;28;20442;-12
2022/11/18 13:03:33;;;;;;;;;;;20.00;45.30;;;;;;5113547;28;20052;-12
2022/11/18 13:06:03;;;;;;;1.73;1.60;;;20.00;45.30;;;;;;5112825;28;19922;-12
2022/11/18 13:08:29;;;;;;;1.80;1.70;;;20.00;45.20;;;;;;5093485;28;20051;-12
2022/11/18 13:13:45;;;;;;;1.50;1.40;;;20.00;45.30;;;;;;5113180;28;20403;-12
2022/11/18 13:19:08;;;;;;;1.70;1.60;;;20.00;45.30;;;;;;5112787;28;20052;-12
2022/11/18 13:24:20;;;;;;;2.40;1.90;;;20.00;45.90;;;;;;5111396;28;20488;-12
2022/11/18 13:26:52;;;;;;;2.28;2.05;;;20.00;45.40;;;;;;5112442;28;20051;-13
2022/11/18 13:29:18;;;;;;;1.70;1.60;;;20.00;45.40;;;;;;5112494;28;20404;-12
2022/11/18 13:32:13;;;;;;;2.28;1.88;;;20.00;45.40;;;;;;5112477;28;20094;-12
2022/11/18 13:34:50;;;;;;;1.90;1.75;;;20.00;45.40;;;;;;5112639;28;20094;-12